Time;durP1;ratioP1;P1;durP2;ratioP2;P2;SDS_P1;SDS_P2;PMS_P1;PMS_P2;Temp;Humidity;BMP_temperature;BMP_pressure;BME280_temperature;BME280_humidity;BME280_pressure;Samples;Min_cycle;Max_cycle;Signal;HPM_P1;HPM_P2
2024/01/11 00:02:04;;;;;;;22.27;7.40;;;;;;;;;;4978130;28;20073;-68
2024/01/11 00:04:30;;;;;;;9.77;7.43;;;;;;;;;;4978285;28;20069;-69
2024/01/11 00:06:55;;;;;;;12.13;7.25;;;;;;;;;;4979356;28;20088;-68
2024/01/11 00:09:20;;;;;;;13.73;7.28;;;;;;;;;;4979432;28;20054;-67
2024/01/11 00:11:46;;;;;;;14.55;6.95;;;;;;;;;;4978545;28;20048;-68
2024/01/11 00:14:11;;;;;;;8.57;6.07;;;;;;;;;;4993182;28;20442;-68
2024/01/11 00:16:37;;;;;;;8.85;6.45;;;;;;;;;;4979571;28;20065;-69
2024/01/11 00:19:02;;;;;;;10.73;7.22;;;;;;;;;;4979760;28;20056;-67
2024/01/11 00:21:27;;;;;;;13.07;6.13;;;;;;;;;;4961767;28;20567;-68
2024/01/11 00:23:53;;;;;;;9.43;6.55;;;;;;;;;;4979500;28;20132;-67
2024/01/11 00:26:18;;;;;;;9.95;6.35;;;;;;;;;;4978718;28;20034;-69
2024/01/11 00:28:44;;;;;;;11.63;6.45;;;;;;;;;;4978076;28;20821;-68
2024/01/11 00:31:10;;;;;;;13.00;7.60;;;;;;;;;;4978994;28;20058;-67
2024/01/11 00:33:36;;;;;;;17.48;8.90;;;;;;;;;;4979684;28;20054;-68
2024/01/11 00:36:01;;;;;;;11.93;7.45;;;;;;;;;;4979250;28;20077;-67
2024/01/11 00:38:27;;;;;;;14.15;7.32;;;;;;;;;;4978703;28;20062;-68
2024/01/11 00:40:52;;;;;;;11.10;7.13;;;;;;;;;;4978816;28;20062;-67
2024/01/11 00:43:17;;;;;;;11.23;6.43;;;;;;;;;;4978992;28;20042;-67
2024/01/11 00:45:45;;;;;;;13.25;7.82;;;;;;;;;;4979557;28;20126;-67
2024/01/11 00:48:11;;;;;;;12.10;6.63;;;;;;;;;;4977986;28;20038;-69
2024/01/11 00:50:37;;;;;;;8.85;5.55;;;;;;;;;;4978732;28;20137;-67
2024/01/11 00:53:02;;;;;;;8.10;6.30;;;;;;;;;;4979403;28;20070;-68
2024/01/11 00:55:28;;;;;;;12.63;6.30;;;;;;;;;;4978551;28;20757;-68
2024/01/11 00:57:54;;;;;;;7.22;5.55;;;;;;;;;;4978674;28;20045;-69
2024/01/11 01:00:19;;;;;;;8.07;5.35;;;;;;;;;;4978649;28;20503;-67
2024/01/11 01:02:45;;;;;;;12.85;7.25;;;;;;;;;;4979191;28;20125;-67
2024/01/11 01:05:10;;;;;;;7.53;5.15;;;;;;;;;;4978356;28;20042;-68
2024/01/11 01:07:36;;;;;;;8.52;5.50;;;;;;;;;;4979053;28;20372;-68
2024/01/11 01:10:01;;;;;;;8.00;4.32;;;;;;;;;;4978115;28;22750;-69
2024/01/11 01:12:28;;;;;;;7.25;4.35;;;;;;;;;;4977713;28;20158;-68
2024/01/11 01:14:54;;;;;;;10.85;6.07;;;;;;;;;;4977882;28;20050;-68
2024/01/11 01:17:19;;;;;;;12.18;7.25;;;;;;;;;;4977564;28;20057;-67
2024/01/11 01:19:45;;;;;;;14.02;8.60;;;;;;;;;;4977161;28;20050;-68
2024/01/11 01:22:10;;;;;;;15.93;7.88;;;;;;;;;;4976669;28;20046;-68
2024/01/11 01:24:35;;;;;;;9.10;6.50;;;;;;;;;;4976844;28;20046;-68
2024/01/11 01:27:01;;;;;;;5.97;4.45;;;;;;;;;;4977585;28;20119;-68
2024/01/11 01:29:27;;;;;;;12.35;8.60;;;;;;;;;;4976049;28;20046;-68
2024/01/11 01:31:52;;;;;;;14.95;8.57;;;;;;;;;;4977451;28;20057;-69
2024/01/11 01:34:18;;;;;;;14.38;8.07;;;;;;;;;;4978903;28;20046;-67
2024/01/11 01:36:44;;;;;;;13.70;7.43;;;;;;;;;;4976623;28;20100;-67
2024/01/11 01:39:09;;;;;;;22.80;10.20;;;;;;;;;;4976172;28;20053;-67
2024/01/11 01:41:35;;;;;;;21.02;9.15;;;;;;;;;;4976981;28;20125;-68
2024/01/11 01:44:00;;;;;;;21.75;9.68;;;;;;;;;;4977148;28;20112;-68
2024/01/11 01:46:27;;;;;;;17.88;8.27;;;;;;;;;;4976033;28;20053;-68
2024/01/11 01:48:54;;;;;;;14.48;7.80;;;;;;;;;;4976076;28;20495;-68
2024/01/11 01:51:20;;;;;;;13.93;8.98;;;;;;;;;;4977221;28;20046;-68
2024/01/11 01:53:46;;;;;;;16.38;8.38;;;;;;;;;;4978314;28;20105;-68
2024/01/11 01:56:13;;;;;;;14.30;6.93;;;;;;;;;;4977939;28;20046;-68
2024/01/11 01:58:38;;;;;;;17.35;8.77;;;;;;;;;;4977809;28;20042;-68
2024/01/11 02:01:04;;;;;;;12.18;8.68;;;;;;;;;;4978353;28;20105;-68
2024/01/11 02:03:29;;;;;;;20.50;10.82;;;;;;;;;;4976066;28;20534;-68
2024/01/11 02:05:56;;;;;;;12.90;9.15;;;;;;;;;;4976520;28;20092;-67
2024/01/11 02:08:23;;;;;;;18.50;10.13;;;;;;;;;;4977668;28;20038;-68
2024/01/11 02:10:48;;;;;;;11.63;8.40;;;;;;;;;;4977497;28;20034;-68
2024/01/11 02:13:14;;;;;;;10.80;8.00;;;;;;;;;;4976615;28;20524;-68
2024/01/11 02:15:40;;;;;;;13.30;9.43;;;;;;;;;;4977988;28;20069;-67
2024/01/11 02:18:05;;;;;;;18.08;11.20;;;;;;;;;;4977630;28;20050;-67
2024/01/11 02:20:31;;;;;;;18.70;9.90;;;;;;;;;;4977274;28;20391;-68
2024/01/11 02:23:06;;;;;;;18.77;11.35;;;;;;;;;;4977042;28;20056;-67
2024/01/11 02:25:31;;;;;;;11.75;8.40;;;;;;;;;;4976417;28;20100;-68
2024/01/11 02:27:56;;;;;;;27.40;10.27;;;;;;;;;;4977115;28;20042;-68
2024/01/11 02:30:22;;;;;;;21.02;10.65;;;;;;;;;;4975884;28;20050;-67
2024/01/11 02:32:48;;;;;;;19.45;11.80;;;;;;;;;;4976423;28;20120;-68
2024/01/11 02:35:18;;;;;;;22.45;10.57;;;;;;;;;;4976295;28;20144;-67
2024/01/11 02:37:45;;;;;;;28.98;13.18;;;;;;;;;;4977227;28;20045;-68
2024/01/11 02:40:13;;;;;;;26.00;12.00;;;;;;;;;;4977142;28;20393;-67
2024/01/11 02:42:38;;;;;;;25.02;11.65;;;;;;;;;;4975768;28;20076;-67
2024/01/11 02:45:04;;;;;;;16.88;9.70;;;;;;;;;;4977108;28;20499;-67
2024/01/11 02:47:30;;;;;;;28.55;12.38;;;;;;;;;;4975148;28;20046;-67
2024/01/11 02:49:55;;;;;;;47.83;15.98;;;;;;;;;;4976737;28;20074;-67
2024/01/11 02:52:22;;;;;;;30.85;13.88;;;;;;;;;;4975559;28;20063;-69
2024/01/11 02:54:48;;;;;;;13.57;8.55;;;;;;;;;;4976626;28;20698;-66
2024/01/11 02:57:14;;;;;;;25.52;12.75;;;;;;;;;;4973969;28;20136;-67
2024/01/11 02:59:40;;;;;;;16.95;10.43;;;;;;;;;;4976886;28;20105;-65
2024/01/11 03:02:05;;;;;;;17.35;8.75;;;;;;;;;;4976844;28;20042;-68
2024/01/11 03:04:30;;;;;;;21.92;13.20;;;;;;;;;;4976292;28;20578;-66
2024/01/11 03:06:56;;;;;;;28.23;11.18;;;;;;;;;;4976324;28;20066;-65
2024/01/11 03:09:21;;;;;;;18.85;10.35;;;;;;;;;;4975272;28;20054;-64
2024/01/11 03:11:47;;;;;;;21.45;11.77;;;;;;;;;;4977028;28;20096;-66
2024/01/11 03:14:12;;;;;;;19.00;11.15;;;;;;;;;;4975390;28;20038;-65
2024/01/11 03:16:39;;;;;;;26.67;11.65;;;;;;;;;;4976467;28;20464;-65
2024/01/11 03:19:05;;;;;;;28.35;12.57;;;;;;;;;;4976407;28;20054;-64
2024/01/11 03:21:30;;;;;;;22.75;10.63;;;;;;;;;;4975575;28;20065;-64
2024/01/11 03:23:56;;;;;;;25.98;11.52;;;;;;;;;;4976830;28;20072;-66
2024/01/11 03:26:22;;;;;;;11.63;6.55;;;;;;;;;;4979118;28;20761;-64
2024/01/11 03:28:47;;;;;;;21.30;9.80;;;;;;;;;;4977042;28;20049;-65
2024/01/11 03:31:12;;;;;;;14.38;6.53;;;;;;;;;;4976317;28;20062;-64
2024/01/11 03:33:38;;;;;;;13.85;5.88;;;;;;;;;;4976039;28;20121;-65
2024/01/11 03:36:10;;;;;;;9.85;6.03;;;;;;;;;;4976543;28;20042;-64
2024/01/11 03:38:36;;;;;;;12.00;8.45;;;;;;;;;;4975254;28;20476;-67
2024/01/11 03:41:02;;;;;;;13.65;7.70;;;;;;;;;;4976605;28;20054;-65
2024/01/11 03:43:28;;;;;;;15.45;9.43;;;;;;;;;;4975042;28;20141;-66
2024/01/11 03:45:53;;;;;;;12.82;6.65;;;;;;;;;;4976315;28;20153;-66
2024/01/11 03:48:19;;;;;;;14.55;8.75;;;;;;;;;;4975298;28;20065;-65
2024/01/11 03:50:44;;;;;;;14.02;7.30;;;;;;;;;;4975650;28;20068;-64
2024/01/11 03:53:10;;;;;;;16.10;9.75;;;;;;;;;;4975872;28;20073;-65
2024/01/11 03:55:35;;;;;;;17.08;8.98;;;;;;;;;;4976005;28;20064;-65
2024/01/11 03:58:01;;;;;;;12.05;7.28;;;;;;;;;;4976445;28;20495;-66
2024/01/11 04:00:26;;;;;;;18.23;8.40;;;;;;;;;;4975606;28;20161;-67
2024/01/11 04:02:52;;;;;;;13.45;8.10;;;;;;;;;;4975715;28;20062;-66
2024/01/11 04:05:17;;;;;;;14.77;9.13;;;;;;;;;;4974351;28;20520;-65
2024/01/11 04:07:42;;;;;;;12.18;7.93;;;;;;;;;;4974762;28;20133;-67
2024/01/11 04:10:11;;;;;;;14.85;8.90;;;;;;;;;;4976153;28;20065;-65
2024/01/11 04:12:37;;;;;;;14.95;8.52;;;;;;;;;;4975056;28;20065;-66
2024/01/11 04:15:03;;;;;;;13.65;8.38;;;;;;;;;;4975140;28;20042;-66
2024/01/11 04:17:28;;;;;;;12.48;7.18;;;;;;;;;;4975474;28;20061;-66
2024/01/11 04:19:54;;;;;;;21.00;9.43;;;;;;;;;;4976463;28;20050;-67
2024/01/11 04:22:20;;;;;;;16.88;8.85;;;;;;;;;;4975423;28;20108;-66
2024/01/11 04:24:45;;;;;;;16.80;9.30;;;;;;;;;;4975677;28;20558;-67
2024/01/11 04:27:11;;;;;;;13.18;7.32;;;;;;;;;;4976955;28;20153;-67
2024/01/11 04:29:37;;;;;;;19.05;10.10;;;;;;;;;;4978975;28;20046;-67
2024/01/11 04:32:02;;;;;;;19.40;9.82;;;;;;;;;;4979150;28;20589;-66
2024/01/11 04:34:28;;;;;;;16.58;8.38;;;;;;;;;;4960867;28;20633;-66
2024/01/11 04:36:53;;;;;;;14.90;8.48;;;;;;;;;;4977898;28;20084;-67
2024/01/11 04:39:18;;;;;;;17.90;9.30;;;;;;;;;;4979152;28;20046;-67
2024/01/11 04:41:45;;;;;;;27.23;12.25;;;;;;;;;;4979144;28;20050;-66
2024/01/11 04:44:10;;;;;;;17.77;8.85;;;;;;;;;;4979614;28;20046;-66
2024/01/11 04:46:35;;;;;;;28.13;10.88;;;;;;;;;;4977799;28;20053;-68
2024/01/11 04:49:01;;;;;;;17.50;9.85;;;;;;;;;;4978827;28;20054;-67
2024/01/11 04:51:26;;;;;;;24.00;9.82;;;;;;;;;;4973291;28;20687;-66
2024/01/11 04:53:52;;;;;;;18.13;8.75;;;;;;;;;;4978450;28;20077;-65
2024/01/11 04:56:17;;;;;;;22.25;9.48;;;;;;;;;;4978629;28;20042;-65
2024/01/11 04:58:44;;;;;;;16.20;8.57;;;;;;;;;;4976995;28;20042;-65
2024/01/11 05:01:14;;;;;;;14.73;8.98;;;;;;;;;;4978770;28;20046;-67
2024/01/11 05:03:40;;;;;;;18.05;9.60;;;;;;;;;;4977863;28;20105;-66
2024/01/11 05:06:06;;;;;;;14.82;8.95;;;;;;;;;;4978623;28;20050;-66
2024/01/11 05:08:31;;;;;;;19.30;11.77;;;;;;;;;;4978333;28;20042;-67
2024/01/11 05:10:56;;;;;;;17.73;7.47;;;;;;;;;;4991175;28;20439;-66
2024/01/11 05:13:22;;;;;;;13.60;8.75;;;;;;;;;;4977720;28;20054;-67
2024/01/11 05:15:47;;;;;;;19.25;9.57;;;;;;;;;;4978617;28;20091;-66
2024/01/11 05:18:13;;;;;;;15.75;8.45;;;;;;;;;;4978569;28;20042;-66
2024/01/11 05:20:39;;;;;;;14.13;8.52;;;;;;;;;;4977101;28;20450;-66
2024/01/11 05:23:05;;;;;;;14.77;7.55;;;;;;;;;;4978617;28;20053;-68
2024/01/11 05:25:33;;;;;;;24.52;9.00;;;;;;;;;;4976421;28;20049;-66
2024/01/11 05:28:03;;;;;;;19.17;7.22;;;;;;;;;;4978087;28;20042;-67
2024/01/11 05:30:33;;;;;;;20.75;8.65;;;;;;;;;;4977271;28;20065;-66
2024/01/11 05:32:58;;;;;;;10.23;7.22;;;;;;;;;;4975427;28;20088;-67
2024/01/11 05:35:24;;;;;;;13.57;6.95;;;;;;;;;;4976514;28;20046;-67
2024/01/11 05:37:50;;;;;;;13.75;7.22;;;;;;;;;;4977994;28;20537;-67
2024/01/11 05:40:15;;;;;;;14.95;8.10;;;;;;;;;;4977449;28;20038;-67
2024/01/11 05:42:40;;;;;;;18.13;7.38;;;;;;;;;;4973734;28;20054;-67
2024/01/11 05:45:06;;;;;;;9.85;6.95;;;;;;;;;;4975613;28;20073;-68
2024/01/11 05:47:31;;;;;;;22.10;11.10;;;;;;;;;;4976373;28;20054;-66
2024/01/11 05:49:57;;;;;;;22.88;10.25;;;;;;;;;;4977544;28;20053;-67
2024/01/11 05:52:22;;;;;;;20.77;10.40;;;;;;;;;;4975057;28;20050;-66
2024/01/11 05:54:48;;;;;;;11.13;7.30;;;;;;;;;;4975432;28;20042;-67
2024/01/11 05:57:13;;;;;;;14.35;8.73;;;;;;;;;;4975803;28;20228;-68
2024/01/11 05:59:44;;;;;;;15.48;8.73;;;;;;;;;;4989383;28;20050;-66
2024/01/11 06:02:10;;;;;;;24.63;9.90;;;;;;;;;;4974470;28;20061;-67
2024/01/11 06:04:35;;;;;;;21.63;10.15;;;;;;;;;;4974178;28;20077;-67
2024/01/11 06:07:01;;;;;;;23.55;9.02;;;;;;;;;;4974481;28;20050;-66
2024/01/11 06:09:26;;;;;;;19.05;9.63;;;;;;;;;;4975716;28;20156;-67
2024/01/11 06:11:52;;;;;;;15.10;8.57;;;;;;;;;;4970799;28;20152;-66
2024/01/11 06:14:17;;;;;;;21.00;8.98;;;;;;;;;;4973923;28;20083;-66
2024/01/11 06:16:42;;;;;;;19.58;8.82;;;;;;;;;;4971189;28;21035;-66
2024/01/11 06:19:09;;;;;;;16.45;8.18;;;;;;;;;;4973291;28;20046;-66
2024/01/11 06:21:34;;;;;;;20.05;10.18;;;;;;;;;;4971943;28;20112;-66
2024/01/11 06:24:00;;;;;;;25.58;10.23;;;;;;;;;;4973662;28;20423;-66
2024/01/11 06:26:25;;;;;;;18.35;10.30;;;;;;;;;;4973184;28;20046;-66
2024/01/11 06:28:50;;;;;;;19.83;9.07;;;;;;;;;;4973533;28;20055;-67
2024/01/11 06:31:17;;;;;;;19.38;9.48;;;;;;;;;;4975937;28;20046;-66
2024/01/11 06:33:43;;;;;;;27.98;11.75;;;;;;;;;;4975645;28;20052;-66
2024/01/11 06:36:09;;;;;;;32.47;14.60;;;;;;;;;;4976077;28;20038;-66
2024/01/11 06:38:34;;;;;;;13.95;7.90;;;;;;;;;;4973538;28;20404;-66
2024/01/11 06:41:00;;;;;;;23.25;11.77;;;;;;;;;;4976182;28;20127;-66
2024/01/11 06:43:25;;;;;;;19.17;10.70;;;;;;;;;;4977278;28;20080;-65
2024/01/11 06:45:52;;;;;;;23.15;9.45;;;;;;;;;;4977226;28;20046;-65
2024/01/11 06:48:17;;;;;;;20.58;9.45;;;;;;;;;;4974877;28;20072;-65
2024/01/11 06:50:42;;;;;;;24.60;12.50;;;;;;;;;;4974721;28;20141;-67
2024/01/11 06:53:08;;;;;;;22.83;6.93;;;;;;;;;;4972204;28;20154;-66
2024/01/11 06:55:34;;;;;;;21.08;11.60;;;;;;;;;;4975441;28;20050;-65
2024/01/11 06:58:01;;;;;;;18.58;10.15;;;;;;;;;;4975919;28;20108;-67
2024/01/11 07:00:27;;;;;;;24.42;10.18;;;;;;;;;;4975263;28;20124;-66
2024/01/11 07:02:53;;;;;;;34.10;12.57;;;;;;;;;;4976146;28;20510;-67
2024/01/11 07:05:19;;;;;;;29.33;12.50;;;;;;;;;;4975401;28;20052;-67
2024/01/11 07:07:44;;;;;;;23.05;10.75;;;;;;;;;;4975716;28;20073;-67
2024/01/11 07:10:10;;;;;;;29.02;11.75;;;;;;;;;;4976438;28;20053;-66
2024/01/11 07:12:37;;;;;;;19.50;8.55;;;;;;;;;;4976268;28;20104;-67
2024/01/11 07:15:04;;;;;;;29.35;9.88;;;;;;;;;;4976489;28;20046;-67
2024/01/11 07:17:30;;;;;;;22.17;11.88;;;;;;;;;;4975900;28;20074;-66
2024/01/11 07:19:56;;;;;;;17.30;9.70;;;;;;;;;;4975960;28;20184;-66
2024/01/11 07:22:21;;;;;;;17.77;10.45;;;;;;;;;;4975416;28;20494;-65
2024/01/11 07:24:46;;;;;;;26.27;12.27;;;;;;;;;;4975390;28;20061;-67
2024/01/11 07:27:12;;;;;;;18.08;10.18;;;;;;;;;;4976769;28;20076;-66
2024/01/11 07:29:38;;;;;;;22.02;10.43;;;;;;;;;;4976310;28;20189;-67
2024/01/11 07:32:03;;;;;;;17.30;8.70;;;;;;;;;;4976597;28;20955;-66
2024/01/11 07:34:29;;;;;;;24.38;11.40;;;;;;;;;;4974698;28;20077;-66
2024/01/11 07:36:54;;;;;;;18.50;10.10;;;;;;;;;;4972925;28;20092;-66
2024/01/11 07:39:22;;;;;;;27.65;12.07;;;;;;;;;;4975434;28;21180;-67
2024/01/11 07:41:48;;;;;;;22.08;12.13;;;;;;;;;;4975544;28;20046;-68
2024/01/11 07:44:13;;;;;;;21.30;10.43;;;;;;;;;;4976244;28;20046;-67
2024/01/11 07:46:38;;;;;;;26.73;11.23;;;;;;;;;;4975365;28;20054;-67
2024/01/11 07:49:04;;;;;;;19.73;9.93;;;;;;;;;;4976465;28;20512;-67
2024/01/11 07:51:30;;;;;;;18.23;10.60;;;;;;;;;;4976817;28;20104;-67
2024/01/11 07:53:55;;;;;;;17.92;11.13;;;;;;;;;;4976196;28;20046;-67
2024/01/11 07:56:22;;;;;;;22.67;10.55;;;;;;;;;;4975984;28;20052;-68
2024/01/11 07:58:47;;;;;;;18.58;9.68;;;;;;;;;;4975393;28;20042;-67
2024/01/11 08:01:13;;;;;;;29.52;9.35;;;;;;;;;;4977493;28;20578;-67
2024/01/11 08:03:38;;;;;;;23.65;10.35;;;;;;;;;;4979801;28;20105;-67
2024/01/11 08:06:07;;;;;;;20.85;9.40;;;;;;;;;;4978715;28;20037;-67
2024/01/11 08:08:33;;;;;;;19.75;9.85;;;;;;;;;;4979635;28;20093;-67
2024/01/11 08:10:58;;;;;;;22.17;10.73;;;;;;;;;;4993532;28;20164;-67
2024/01/11 08:13:23;;;;;;;27.35;11.32;;;;;;;;;;4979954;28;20137;-67
2024/01/11 08:15:49;;;;;;;23.38;9.90;;;;;;;;;;4979453;28;20042;-67
2024/01/11 08:18:15;;;;;;;19.33;9.07;;;;;;;;;;4992955;28;20034;-67
2024/01/11 08:20:40;;;;;;;22.17;9.35;;;;;;;;;;4979000;28;20053;-67
2024/01/11 08:23:06;;;;;;;17.38;9.48;;;;;;;;;;4980027;28;20046;-67
2024/01/11 08:25:31;;;;;;;21.95;9.98;;;;;;;;;;4980061;28;20133;-67
2024/01/11 08:27:57;;;;;;;23.52;10.50;;;;;;;;;;4978511;28;20198;-67
2024/01/11 08:30:22;;;;;;;19.95;10.02;;;;;;;;;;4980015;28;20070;-67
2024/01/11 08:32:48;;;;;;;17.70;9.85;;;;;;;;;;4978152;28;20042;-67
2024/01/11 08:35:14;;;;;;;20.55;9.55;;;;;;;;;;4979410;28;20124;-68
2024/01/11 08:37:39;;;;;;;21.55;9.50;;;;;;;;;;4978521;28;20057;-68
2024/01/11 08:40:05;;;;;;;19.85;9.20;;;;;;;;;;4978998;28;20046;-68
2024/01/11 08:42:31;;;;;;;11.77;6.75;;;;;;;;;;4979255;28;20050;-67
2024/01/11 08:44:57;;;;;;;16.70;8.52;;;;;;;;;;4978506;28;20630;-67
2024/01/11 08:47:22;;;;;;;15.52;8.13;;;;;;;;;;4978942;28;20054;-68
2024/01/11 08:49:49;;;;;;;21.85;9.75;;;;;;;;;;4978073;28;20038;-68
2024/01/11 08:52:14;;;;;;;17.98;8.48;;;;;;;;;;4979230;28;20035;-67
2024/01/11 08:54:39;;;;;;;20.10;8.63;;;;;;;;;;4977180;28;20411;-68
2024/01/11 08:57:06;;;;;;;22.42;10.73;;;;;;;;;;4979426;28;21007;-68
2024/01/11 08:59:31;;;;;;;17.27;7.78;;;;;;;;;;4979375;28;20054;-68
2024/01/11 09:01:56;;;;;;;26.05;10.77;;;;;;;;;;4977547;28;20046;-67
2024/01/11 09:04:22;;;;;;;14.85;7.85;;;;;;;;;;4978846;28;20042;-67
2024/01/11 09:06:47;;;;;;;17.80;8.98;;;;;;;;;;4960480;28;20057;-67
2024/01/11 09:09:13;;;;;;;22.25;8.82;;;;;;;;;;4977489;28;20128;-68
2024/01/11 09:11:41;;;;;;;16.50;8.80;;;;;;;;;;4976633;28;20149;-68
2024/01/11 09:14:07;;;;;;;17.92;9.05;;;;;;;;;;4977935;28;20046;-67
2024/01/11 09:16:32;;;;;;;19.58;8.35;;;;;;;;;;4978553;28;20042;-67
2024/01/11 09:19:00;;;;;;;21.17;10.00;;;;;;;;;;4977557;28;20057;-67
2024/01/11 09:21:26;;;;;;;21.23;9.10;;;;;;;;;;4978242;28;20085;-67
2024/01/11 09:23:51;;;;;;;13.90;8.23;;;;;;;;;;4977582;28;20515;-68
2024/01/11 09:26:17;;;;;;;18.25;8.40;;;;;;;;;;4978126;28;20057;-67
2024/01/11 09:28:42;;;;;;;27.58;12.23;;;;;;;;;;4976413;28;20038;-67
2024/01/11 09:31:08;;;;;;;21.80;10.27;;;;;;;;;;4978335;28;20054;-67
2024/01/11 09:33:33;;;;;;;17.42;6.95;;;;;;;;;;4977587;28;20051;-67
2024/01/11 09:35:59;;;;;;;14.93;7.50;;;;;;;;;;4977072;28;20053;-67
2024/01/11 09:38:25;;;;;;;14.60;7.15;;;;;;;;;;4977707;28;20062;-67
2024/01/11 09:41:03;;;;;;;23.75;9.52;;;;;;;;;;4976761;28;20077;-67
2024/01/11 09:43:29;;;;;;;21.95;9.13;;;;;;;;;;4977683;28;20066;-67
2024/01/11 09:45:56;;;;;;;20.48;9.52;;;;;;;;;;4976324;28;20084;-67
2024/01/11 09:48:24;;;;;;;17.80;7.90;;;;;;;;;;4976917;28;20733;-67
2024/01/11 09:50:51;;;;;;;19.30;9.38;;;;;;;;;;4976058;28;20118;-67
2024/01/11 09:53:18;;;;;;;15.32;8.32;;;;;;;;;;4977392;28;20427;-68
2024/01/11 09:55:44;;;;;;;19.20;8.73;;;;;;;;;;4976191;28;20557;-67
2024/01/11 09:58:10;;;;;;;15.65;8.48;;;;;;;;;;4976550;28;20050;-67
2024/01/11 10:00:36;;;;;;;25.60;7.95;;;;;;;;;;4977091;28;20519;-67
2024/01/11 10:03:01;;;;;;;17.98;7.72;;;;;;;;;;4975986;28;20162;-67
2024/01/11 10:05:29;;;;;;;19.25;7.75;;;;;;;;;;4977632;28;20073;-67
2024/01/11 10:07:54;;;;;;;15.77;7.22;;;;;;;;;;4976028;28;20653;-67
2024/01/11 10:10:20;;;;;;;28.95;9.05;;;;;;;;;;4976892;28;20119;-68
2024/01/11 10:12:47;;;;;;;19.35;9.02;;;;;;;;;;4975601;28;20097;-67
2024/01/11 10:15:13;;;;;;;17.95;9.63;;;;;;;;;;4976964;28;20110;-67
2024/01/11 10:17:46;;;;;;;19.30;8.70;;;;;;;;;;4976106;28;21016;-68
2024/01/11 10:20:15;;;;;;;20.08;9.68;;;;;;;;;;4977925;28;20042;-68
2024/01/11 10:22:41;;;;;;;16.25;8.10;;;;;;;;;;4976806;28;20057;-67
2024/01/11 10:25:15;;;;;;;14.95;7.95;;;;;;;;;;4990800;28;20046;-68
2024/01/11 10:27:44;;;;;;;16.92;8.93;;;;;;;;;;4975244;28;20053;-68
2024/01/11 10:30:12;;;;;;;19.73;9.45;;;;;;;;;;4975789;28;20407;-69
2024/01/11 10:32:38;;;;;;;17.60;8.57;;;;;;;;;;4976850;28;20053;-68
2024/01/11 10:35:05;;;;;;;18.83;9.55;;;;;;;;;;4975663;28;20050;-68
2024/01/11 10:37:32;;;;;;;18.60;8.63;;;;;;;;;;4974538;28;20104;-67
2024/01/11 10:40:04;;;;;;;20.45;9.93;;;;;;;;;;4975780;28;20046;-68
2024/01/11 10:42:31;;;;;;;16.25;7.65;;;;;;;;;;4976719;28;20133;-68
2024/01/11 10:44:59;;;;;;;18.02;8.82;;;;;;;;;;4976245;28;20574;-68
2024/01/11 10:47:27;;;;;;;19.95;9.93;;;;;;;;;;4976489;28;20050;-68
2024/01/11 10:49:56;;;;;;;20.35;10.15;;;;;;;;;;4976566;28;20584;-68
2024/01/11 10:52:28;;;;;;;22.25;9.82;;;;;;;;;;4976378;28;20250;-68
2024/01/11 10:54:55;;;;;;;16.90;9.07;;;;;;;;;;4976038;28;20137;-68
2024/01/11 10:57:20;;;;;;;20.95;9.73;;;;;;;;;;4976196;28;20046;-68
2024/01/11 10:59:48;;;;;;;21.20;9.60;;;;;;;;;;4976099;28;20077;-68
2024/01/11 11:02:15;;;;;;;22.73;9.65;;;;;;;;;;4975693;28;20050;-68
2024/01/11 11:04:42;;;;;;;20.67;9.38;;;;;;;;;;4975986;28;20100;-68
2024/01/11 11:07:08;;;;;;;18.35;9.43;;;;;;;;;;4976706;28;20502;-68
2024/01/11 11:09:35;;;;;;;22.50;9.13;;;;;;;;;;4974528;28;20042;-68
2024/01/11 11:12:01;;;;;;;23.58;10.35;;;;;;;;;;4973951;28;20060;-68
2024/01/11 11:14:28;;;;;;;19.80;9.30;;;;;;;;;;4976238;28;20042;-68
2024/01/11 11:16:54;;;;;;;24.42;9.57;;;;;;;;;;4973084;28;20050;-68
2024/01/11 11:19:20;;;;;;;18.65;8.13;;;;;;;;;;4976505;28;20046;-68
2024/01/11 11:21:47;;;;;;;17.90;8.80;;;;;;;;;;4976625;28;20141;-68
2024/01/11 11:24:13;;;;;;;14.52;8.68;;;;;;;;;;4975691;28;21116;-68
2024/01/11 11:26:38;;;;;;;19.10;8.45;;;;;;;;;;4977095;28;20061;-68
2024/01/11 11:29:05;;;;;;;21.02;9.85;;;;;;;;;;4975331;28;20054;-68
2024/01/11 11:31:38;;;;;;;23.23;10.35;;;;;;;;;;4977070;28;20039;-68
2024/01/11 11:34:05;;;;;;;18.10;9.20;;;;;;;;;;4974384;28;20178;-68
2024/01/11 11:36:30;;;;;;;20.50;10.13;;;;;;;;;;4979735;28;20964;-69
2024/01/11 11:39:01;;;;;;;16.13;8.90;;;;;;;;;;4978893;28;20046;-68
2024/01/11 11:41:27;;;;;;;17.40;8.85;;;;;;;;;;4980899;28;20077;-68
2024/01/11 11:43:52;;;;;;;21.95;9.85;;;;;;;;;;4980250;28;20058;-68
2024/01/11 11:46:19;;;;;;;17.55;8.20;;;;;;;;;;4980573;28;20074;-68
2024/01/11 11:48:52;;;;;;;23.75;9.38;;;;;;;;;;4981327;28;20819;-68
2024/01/11 11:51:21;;;;;;;21.42;9.35;;;;;;;;;;4980061;28;20040;-68
2024/01/11 11:53:48;;;;;;;20.65;8.68;;;;;;;;;;4980080;28;20074;-67
2024/01/11 11:56:16;;;;;;;21.52;10.73;;;;;;;;;;4979051;28;20046;-66
2024/01/11 11:58:43;;;;;;;27.05;11.68;;;;;;;;;;4980133;28;20169;-68
2024/01/11 12:01:09;;;;;;;20.85;9.73;;;;;;;;;;4979858;28;20050;-68
2024/01/11 12:03:37;;;;;;;21.13;9.68;;;;;;;;;;4979687;28;20045;-71
2024/01/11 12:06:03;;;;;;;25.25;9.52;;;;;;;;;;4979850;28;20058;-69
2024/01/11 12:08:30;;;;;;;23.13;10.15;;;;;;;;;;4979765;28;20057;-69
2024/01/11 12:10:55;;;;;;;23.67;10.63;;;;;;;;;;4980251;28;20042;-69
2024/01/11 12:13:21;;;;;;;25.15;10.52;;;;;;;;;;4980625;28;20617;-69
2024/01/11 12:15:47;;;;;;;17.70;9.32;;;;;;;;;;4980412;28;20050;-69
2024/01/11 12:18:12;;;;;;;22.95;10.85;;;;;;;;;;4977678;28;20058;-69
2024/01/11 12:20:37;;;;;;;23.38;11.75;;;;;;;;;;4980306;28;20073;-68
2024/01/11 12:23:04;;;;;;;21.98;10.80;;;;;;;;;;4979392;28;20050;-68
2024/01/11 12:25:31;;;;;;;19.52;9.48;;;;;;;;;;4980157;28;20056;-67
2024/01/11 12:27:57;;;;;;;24.83;10.90;;;;;;;;;;4979271;28;20057;-67
2024/01/11 12:30:24;;;;;;;27.50;11.60;;;;;;;;;;4978124;28;20082;-68
2024/01/11 12:32:50;;;;;;;18.88;10.10;;;;;;;;;;4977273;28;20162;-68
2024/01/11 12:35:16;;;;;;;19.40;9.27;;;;;;;;;;4978811;28;20196;-67
2024/01/11 12:37:55;;;;;;;20.73;9.63;;;;;;;;;;4974760;28;20061;-68
2024/01/11 12:40:21;;;;;;;19.13;8.80;;;;;;;;;;4974799;28;20038;-68
2024/01/11 12:42:49;;;;;;;16.95;8.95;;;;;;;;;;4975351;28;20046;-68
2024/01/11 12:45:17;;;;;;;20.27;10.20;;;;;;;;;;4976160;28;20046;-67
2024/01/11 12:47:44;;;;;;;22.67;12.07;;;;;;;;;;4975501;28;20058;-67
2024/01/11 12:50:12;;;;;;;22.42;11.25;;;;;;;;;;4976362;28;20050;-68
2024/01/11 12:52:41;;;;;;;21.33;10.18;;;;;;;;;;4974453;28;20129;-68
2024/01/11 12:55:09;;;;;;;29.88;10.43;;;;;;;;;;4977051;28;20053;-68
2024/01/11 12:57:34;;;;;;;20.85;10.55;;;;;;;;;;4976790;28;20514;-68
2024/01/11 13:00:13;;;;;;;29.65;14.20;;;;;;;;;;4976593;28;20053;-67
2024/01/11 13:02:46;;;;;;;27.85;10.52;;;;;;;;;;4975817;28;20054;-68
2024/01/11 13:05:11;;;;;;;22.83;10.15;;;;;;;;;;4976108;28;20038;-67
2024/01/11 13:07:37;;;;;;;23.13;10.18;;;;;;;;;;4974942;28;20101;-67
2024/01/11 13:10:04;;;;;;;21.55;10.55;;;;;;;;;;4977521;28;20046;-67
2024/01/11 13:12:30;;;;;;;24.33;11.23;;;;;;;;;;4977340;28;20054;-67
2024/01/11 13:14:55;;;;;;;21.77;9.98;;;;;;;;;;4978051;28;20061;-68
2024/01/11 13:17:21;;;;;;;21.02;10.18;;;;;;;;;;4977952;28;20683;-67
2024/01/11 13:19:47;;;;;;;21.15;10.05;;;;;;;;;;4979129;28;20046;-68
2024/01/11 13:22:13;;;;;;;28.17;11.55;;;;;;;;;;4977743;28;20137;-68
2024/01/11 13:24:38;;;;;;;17.55;9.57;;;;;;;;;;4976943;28;20042;-69
2024/01/11 13:27:04;;;;;;;21.65;10.50;;;;;;;;;;4976809;28;20468;-69
2024/01/11 13:29:29;;;;;;;25.00;10.63;;;;;;;;;;4978204;28;20146;-69
2024/01/11 13:31:55;;;;;;;22.10;9.65;;;;;;;;;;4978891;28;20088;-69
2024/01/11 13:34:20;;;;;;;20.95;10.43;;;;;;;;;;4974883;28;20048;-69
2024/01/11 13:36:45;;;;;;;21.33;10.93;;;;;;;;;;4978505;28;20050;-68
2024/01/11 13:39:11;;;;;;;21.90;9.65;;;;;;;;;;4978474;28;20085;-68
2024/01/11 13:41:36;;;;;;;21.55;9.90;;;;;;;;;;4978621;28;20407;-69
2024/01/11 13:44:02;;;;;;;20.17;8.85;;;;;;;;;;4977819;28;20740;-69
2024/01/11 13:46:27;;;;;;;19.98;9.02;;;;;;;;;;4977115;28;20141;-69
2024/01/11 13:48:53;;;;;;;29.50;10.85;;;;;;;;;;4976622;28;20077;-70
2024/01/11 13:51:18;;;;;;;18.95;9.57;;;;;;;;;;4978441;28;20049;-69
2024/01/11 13:53:44;;;;;;;18.48;9.48;;;;;;;;;;4978404;28;20778;-67
2024/01/11 13:56:09;;;;;;;16.23;9.10;;;;;;;;;;4976908;28;20122;-67
2024/01/11 13:58:35;;;;;;;19.65;9.20;;;;;;;;;;4991169;28;20047;-68
2024/01/11 14:01:00;;;;;;;17.92;9.68;;;;;;;;;;4975464;28;20495;-69
2024/01/11 14:03:26;;;;;;;20.10;9.30;;;;;;;;;;4978086;28;20053;-69
2024/01/11 14:05:51;;;;;;;19.70;9.20;;;;;;;;;;4976712;28;20050;-68
2024/01/11 14:08:17;;;;;;;20.50;9.73;;;;;;;;;;4975846;28;20133;-69
2024/01/11 14:10:42;;;;;;;16.67;8.27;;;;;;;;;;4977643;28;20050;-69
2024/01/11 14:13:09;;;;;;;20.65;9.75;;;;;;;;;;4975190;28;20415;-69
2024/01/11 14:15:34;;;;;;;16.63;8.52;;;;;;;;;;4978310;28;20056;-69
2024/01/11 14:18:00;;;;;;;18.88;9.02;;;;;;;;;;4977821;28;20043;-70
2024/01/11 14:20:25;;;;;;;17.95;8.27;;;;;;;;;;4963529;28;20046;-69